createdAt,value
2019-05-23T00:00:20.010Z,100470.10
2019-05-23T00:01:14.260Z,100461.32
2019-05-23T00:02:03.797Z,100461.32
2019-05-23T00:02:48.092Z,100473.64
2019-05-23T00:03:27.371Z,100472.48
2019-05-23T00:04:18.335Z,100471.59
2019-05-23T00:05:17.637Z,100470.89
2019-05-23T00:06:04.314Z,100470.89
2019-05-23T00:06:40.991Z,100476.92
2019-05-23T00:07:19.662Z,100470.13
2019-05-23T00:07:55.956Z,100474.08
2019-05-23T00:08:32.909Z,100468.36
2019-05-23T00:09:10.392Z,100467.25
2019-05-23T00:09:47.699Z,100474.17
2019-05-23T00:10:39.031Z,100474.17
2019-05-23T00:11:33.594Z,100476.61
2019-05-23T00:12:32.845Z,100473.09
2019-05-23T00:13:15.991Z,100473.09
2019-05-23T00:14:00.866Z,100468.55
2019-05-23T00:14:44.705Z,100470.13
2019-05-23T00:15:28.318Z,100473.54
2019-05-23T00:16:07.275Z,100468.84
2019-05-23T00:16:44.002Z,100458.94
2019-05-23T00:17:21.096Z,100458.94
2019-05-23T00:17:57.746Z,100468.06
2019-05-23T00:18:36.356Z,100461.77
2019-05-23T00:19:13.814Z,100468.15
2019-05-23T00:19:51.763Z,100466.61
2019-05-23T00:20:28.963Z,100474.09
2019-05-23T00:21:05.324Z,100471.84
2019-05-23T00:21:42.965Z,100468.96
2019-05-23T00:22:20.796Z,100474.89
2019-05-23T00:22:57.461Z,100474.15
2019-05-23T00:23:33.547Z,100472.55
2019-05-23T00:24:11.517Z,100471.55
2019-05-23T00:24:48.341Z,100470.75
2019-05-23T00:25:25.410Z,100476.05
2019-05-23T00:26:03.804Z,100468.45
2019-05-23T00:26:41.788Z,100465.07
2019-05-23T00:27:18.352Z,100458.30
2019-05-23T00:27:56.141Z,100458.30
2019-05-23T00:28:32.075Z,100458.54
2019-05-23T00:29:10.682Z,100464.92
2019-05-23T00:29:48.399Z,100462.58
2019-05-23T00:30:40.259Z,100462.58
2019-05-23T00:31:21.554Z,100465.42
2019-05-23T00:32:05.366Z,100454.66
2019-05-23T00:32:53.464Z,100457.59
2019-05-23T00:33:31.114Z,100457.59
2019-05-23T00:34:08.337Z,100460.87
2019-05-23T00:34:45.435Z,100459.37
2019-05-23T00:35:21.509Z,100460.27
2019-05-23T00:35:59.846Z,100456.93
2019-05-23T00:36:35.644Z,100456.53
2019-05-23T00:37:14.792Z,100451.80
2019-05-23T00:37:52.588Z,100451.80
2019-05-23T00:38:28.435Z,100453.63
2019-05-23T00:39:07.528Z,100452.73
2019-05-23T00:39:46.787Z,100459.42
2019-05-23T00:40:23.240Z,100453.05
2019-05-23T00:41:00.422Z,100452.33
2019-05-23T00:41:37.708Z,100457.83
2019-05-23T00:42:13.924Z,100449.84
2019-05-23T00:42:52.575Z,100454.13
2019-05-23T00:43:30.185Z,100454.63
2019-05-23T00:44:06.233Z,100453.91
2019-05-23T00:44:43.524Z,100454.83
2019-05-23T00:45:21.751Z,100451.05
2019-05-23T00:45:57.947Z,100452.44
2019-05-23T00:46:34.866Z,100450.45
2019-05-23T00:47:11.613Z,100445.95
2019-05-23T00:47:49.088Z,100450.29
2019-05-23T00:48:25.587Z,100453.38
2019-05-23T00:49:03.573Z,100451.64
2019-05-23T00:49:39.576Z,100453.73
2019-05-23T00:50:18.869Z,100447.05
2019-05-23T00:50:54.993Z,100447.05
2019-05-23T00:51:31.772Z,100454.83
2019-05-23T00:52:09.010Z,100448.36
2019-05-23T00:52:45.208Z,100447.34
2019-05-23T00:53:20.733Z,100447.34
2019-05-23T00:53:57.630Z,100452.34
2019-05-23T00:54:35.177Z,100450.50
2019-05-23T00:55:12.788Z,100451.33
2019-05-23T00:55:49.522Z,100459.05
2019-05-23T00:56:26.841Z,100459.05
2019-05-23T00:57:03.593Z,100451.44
2019-05-23T00:57:42.551Z,100445.95
2019-05-23T00:58:19.843Z,100451.14
2019-05-23T00:58:56.298Z,100453.84
2019-05-23T00:59:33.498Z,100451.14
2019-05-23T01:00:11.683Z,100457.46
2019-05-23T01:00:49.438Z,100451.11
2019-05-23T01:01:26.296Z,100456.09
2019-05-23T01:02:03.047Z,100457.09
2019-05-23T01:02:39.153Z,100453.73
2019-05-23T01:03:17.405Z,100446.11
2019-05-23T01:03:55.438Z,100454.34
2019-05-23T01:04:31.593Z,100449.45
2019-05-23T01:05:10.910Z,100449.29
2019-05-23T01:05:47.638Z,100452.78
2019-05-23T01:06:23.974Z,100452.48
2019-05-23T01:07:00.043Z,100452.48
2019-05-23T01:07:36.457Z,100455.88
2019-05-23T01:08:12.415Z,100453.63
2019-05-23T01:08:49.572Z,100450.00
2019-05-23T01:09:28.088Z,100447.55
2019-05-23T01:10:05.734Z,100452.83
2019-05-23T01:10:42.683Z,100460.20
2019-05-23T01:11:19.760Z,100458.20
2019-05-23T01:11:55.371Z,100448.05
2019-05-23T01:12:31.611Z,100448.05
2019-05-23T01:13:09.205Z,100449.50
2019-05-23T01:13:46.061Z,100457.22
2019-05-23T01:14:22.866Z,100449.16
2019-05-23T01:14:59.417Z,100457.83
2019-05-23T01:15:36.002Z,100462.06
2019-05-23T01:16:14.649Z,100456.03
2019-05-23T01:16:51.757Z,100451.09
2019-05-23T01:17:29.126Z,100448.84
2019-05-23T01:18:06.102Z,100450.14
2019-05-23T01:18:42.824Z,100446.72
2019-05-23T01:19:19.221Z,100452.44
2019-05-23T01:19:56.982Z,100457.63
2019-05-23T01:20:51.724Z,100454.69
2019-05-23T01:21:37.771Z,100450.80
2019-05-23T01:22:15.498Z,100449.69
2019-05-23T01:22:53.805Z,100453.78
2019-05-23T01:23:32.243Z,100453.78
2019-05-23T01:24:14.789Z,100459.88
2019-05-23T01:24:55.450Z,100452.99
2019-05-23T01:25:33.173Z,100450.50
2019-05-23T01:26:10.840Z,100452.20
2019-05-23T01:26:48.662Z,100443.71
2019-05-23T01:27:25.126Z,100452.94
2019-05-23T01:28:01.741Z,100451.86
2019-05-23T01:28:38.064Z,100456.24
2019-05-23T01:29:14.701Z,100453.09
2019-05-23T01:29:51.789Z,100453.09
2019-05-23T01:30:31.677Z,100461.27
2019-05-23T01:31:11.086Z,100455.82
2019-05-23T01:31:48.665Z,100450.34
2019-05-23T01:32:32.051Z,100450.34
2019-05-23T01:33:07.806Z,100452.57
2019-05-23T01:33:44.310Z,100456.98
2019-05-23T01:34:22.625Z,100452.88
2019-05-23T01:34:59.026Z,100452.88
2019-05-23T01:35:36.556Z,100454.18
2019-05-23T01:36:13.292Z,100451.98
2019-05-23T01:36:49.717Z,100457.73
2019-05-23T01:37:27.140Z,100453.49
2019-05-23T01:38:04.302Z,100453.49
2019-05-23T01:38:40.577Z,100452.94
2019-05-23T01:39:17.502Z,100451.53
2019-05-23T01:39:54.431Z,100452.83
2019-05-23T01:40:31.190Z,100451.75
2019-05-23T01:41:07.351Z,100451.75
2019-05-23T01:41:44.391Z,100451.59
2019-05-23T01:42:20.661Z,100451.59
2019-05-23T01:42:57.691Z,100448.50
2019-05-23T01:43:33.964Z,100454.92
2019-05-23T01:44:10.338Z,100449.19
2019-05-23T01:44:48.152Z,100449.19
2019-05-23T01:45:24.775Z,100457.82
2019-05-23T01:46:00.820Z,100455.47
2019-05-23T01:46:37.210Z,100454.67
2019-05-23T01:47:15.205Z,100453.82
2019-05-23T01:47:52.272Z,100452.73
2019-05-23T01:48:29.989Z,100452.73
2019-05-23T01:49:06.690Z,100460.66
2019-05-23T01:49:42.708Z,100462.26
2019-05-23T01:50:21.185Z,100462.26
2019-05-23T01:50:58.253Z,100459.45
2019-05-23T01:51:34.509Z,100454.00
2019-05-23T01:52:12.537Z,100459.63
2019-05-23T01:52:49.827Z,100454.00
2019-05-23T01:53:26.372Z,100449.98
2019-05-23T01:54:03.507Z,100456.91
2019-05-23T01:54:39.621Z,100456.23
2019-05-23T01:55:15.897Z,100457.08
2019-05-23T01:55:52.283Z,100452.17
2019-05-23T01:56:29.363Z,100451.33
2019-05-23T01:57:05.520Z,100454.37
2019-05-23T01:57:41.784Z,100452.97
2019-05-23T01:58:18.168Z,100453.02
2019-05-23T01:58:54.048Z,100458.55
2019-05-23T01:59:30.705Z,100461.33
2019-05-23T02:00:11.377Z,100455.40
2019-05-23T02:00:47.807Z,100451.33
2019-05-23T02:01:24.451Z,100451.33
2019-05-23T02:02:00.509Z,100455.95
2019-05-23T02:02:38.368Z,100451.96
2019-05-23T02:03:15.681Z,100451.86
2019-05-23T02:03:53.244Z,100451.11
2019-05-23T02:04:28.735Z,100443.17
2019-05-23T02:05:05.127Z,100443.17
2019-05-23T02:05:42.526Z,100449.20
2019-05-23T02:06:18.034Z,100447.16
2019-05-23T02:06:54.978Z,100447.16
2019-05-23T02:07:31.967Z,100448.14
2019-05-23T02:08:10.817Z,100447.84
2019-05-23T02:08:47.383Z,100447.84
2019-05-23T02:09:24.018Z,100443.63
2019-05-23T02:09:59.540Z,100450.47
2019-05-23T02:10:35.927Z,100440.59
2019-05-23T02:11:13.046Z,100447.39
2019-05-23T02:11:49.254Z,100446.96
2019-05-23T02:12:26.532Z,100442.51
2019-05-23T02:13:02.838Z,100444.66
2019-05-23T02:13:39.714Z,100436.06
2019-05-23T02:14:17.195Z,100436.06
2019-05-23T02:14:53.928Z,100444.18
2019-05-23T02:15:29.554Z,100446.77
2019-05-23T02:16:05.732Z,100442.98
2019-05-23T02:16:42.951Z,100444.05
2019-05-23T02:17:19.650Z,100444.05
2019-05-23T02:17:57.555Z,100447.53
2019-05-23T02:18:33.992Z,100452.31
2019-05-23T02:19:13.651Z,100452.31
2019-05-23T02:19:49.974Z,100448.56
2019-05-23T02:20:26.064Z,100447.27
2019-05-23T02:21:02.151Z,100448.61
2019-05-23T02:21:38.277Z,100450.84
2019-05-23T02:22:14.934Z,100447.36
2019-05-23T02:22:51.768Z,100449.95
2019-05-23T02:23:28.901Z,100445.27
2019-05-23T02:24:05.912Z,100445.57
2019-05-23T02:24:42.294Z,100444.50
2019-05-23T02:25:22.025Z,100447.13
2019-05-23T02:26:00.010Z,100445.61
2019-05-23T02:26:37.451Z,100443.92
2019-05-23T02:27:15.587Z,100443.61
2019-05-23T02:27:53.973Z,100445.80
2019-05-23T02:28:31.667Z,100447.09
2019-05-23T02:29:08.742Z,100448.02
2019-05-23T02:29:45.327Z,100454.63
2019-05-23T02:30:33.706Z,100449.50
2019-05-23T02:31:00.708Z,100454.63
2019-05-23T02:31:36.809Z,100459.00
2019-05-23T02:32:13.401Z,100450.55
2019-05-23T02:32:50.724Z,100456.58
2019-05-23T02:33:26.856Z,100457.03
2019-05-23T02:34:02.564Z,100446.40
2019-05-23T02:34:39.556Z,100448.62
2019-05-23T02:35:17.898Z,100456.34
2019-05-23T02:35:53.583Z,100454.16
2019-05-23T02:36:30.983Z,100458.04
2019-05-23T02:37:12.244Z,100452.91
2019-05-23T02:38:06.284Z,100452.91
2019-05-23T02:38:59.773Z,100458.63
2019-05-23T02:40:03.941Z,100452.77
2019-05-23T02:40:46.690Z,100448.32
2019-05-23T02:41:46.085Z,100457.37
2019-05-23T02:42:41.094Z,100455.14
2019-05-23T02:43:19.454Z,100452.72
2019-05-23T02:44:00.570Z,100452.36
2019-05-23T02:44:36.954Z,100454.76
2019-05-23T02:45:18.877Z,100454.76
2019-05-23T02:45:59.132Z,100453.82
2019-05-23T02:46:43.079Z,100457.26
2019-05-23T02:47:38.292Z,100448.65
2019-05-23T02:48:22.511Z,100444.33
2019-05-23T02:49:03.033Z,100444.33
2019-05-23T02:49:41.263Z,100453.91
2019-05-23T02:50:26.941Z,100456.58
2019-05-23T02:51:07.094Z,100451.05
2019-05-23T02:51:44.216Z,100446.84
2019-05-23T02:52:40.904Z,100454.20
2019-05-23T02:53:20.949Z,100451.27
2019-05-23T02:53:59.224Z,100448.27
2019-05-23T02:54:37.381Z,100447.02
2019-05-23T02:55:27.906Z,100448.32
2019-05-23T02:56:08.156Z,100451.75
2019-05-23T02:56:46.868Z,100449.56
2019-05-23T02:57:25.412Z,100449.61
2019-05-23T02:58:07.128Z,100450.58
2019-05-23T02:58:56.711Z,100447.59
2019-05-23T02:59:41.230Z,100443.31
2019-05-23T03:01:00.277Z,100443.71
2019-05-23T03:02:14.891Z,100448.58
2019-05-23T03:02:58.686Z,100449.54
2019-05-23T03:03:37.663Z,100445.88
2019-05-23T03:04:18.323Z,100453.11
2019-05-23T03:04:54.372Z,100443.66
2019-05-23T03:05:31.534Z,100446.77
2019-05-23T03:06:12.897Z,100450.69
2019-05-23T03:06:49.872Z,100449.39
2019-05-23T03:07:29.961Z,100448.05
2019-05-23T03:08:08.673Z,100449.92
2019-05-23T03:08:45.503Z,100441.44
2019-05-23T03:09:24.143Z,100449.23
2019-05-23T03:09:59.794Z,100455.75
2019-05-23T03:10:57.034Z,100447.30
2019-05-23T03:11:40.397Z,100447.75
2019-05-23T03:12:18.472Z,100450.33
2019-05-23T03:12:56.395Z,100453.41
2019-05-23T03:13:34.917Z,100450.49
2019-05-23T03:14:11.577Z,100452.72
2019-05-23T03:14:49.512Z,100447.95
2019-05-23T03:15:28.798Z,100447.50
2019-05-23T03:16:06.331Z,100451.71
2019-05-23T03:16:45.138Z,100449.69
2019-05-23T03:17:25.818Z,100446.21
2019-05-23T03:18:04.063Z,100449.57
2019-05-23T03:18:43.228Z,100451.42
2019-05-23T03:19:29.730Z,100455.70
2019-05-23T03:20:08.578Z,100452.31
2019-05-23T03:20:45.282Z,100453.45
2019-05-23T03:21:21.809Z,100456.95
2019-05-23T03:22:01.231Z,100456.48
2019-05-23T03:22:49.273Z,100454.94
2019-05-23T03:23:25.684Z,100453.28
2019-05-23T03:24:01.693Z,100453.25
2019-05-23T03:24:37.798Z,100459.75
2019-05-23T03:26:01.881Z,100453.00
2019-05-23T03:27:01.927Z,100459.17
2019-05-23T03:27:42.344Z,100460.95
2019-05-23T03:28:21.407Z,100461.35
2019-05-23T03:28:58.761Z,100460.07
2019-05-23T03:29:35.524Z,100457.28
2019-05-23T03:30:16.729Z,100454.37
2019-05-23T03:31:21.859Z,100456.23
2019-05-23T03:31:42.971Z,100460.14
2019-05-23T03:32:39.871Z,100453.68
2019-05-23T03:33:17.009Z,100462.24
2019-05-23T03:33:53.144Z,100459.26
2019-05-23T03:34:31.606Z,100464.83
2019-05-23T03:35:15.848Z,100455.78
2019-05-23T03:35:53.944Z,100460.91
2019-05-23T03:36:31.337Z,100458.37
2019-05-23T03:37:07.792Z,100464.07
2019-05-23T03:37:44.092Z,100464.55
2019-05-23T03:38:20.836Z,100458.91
2019-05-23T03:38:57.570Z,100468.42
2019-05-23T03:39:35.102Z,100464.47
2019-05-23T03:40:12.540Z,100463.70
2019-05-23T03:40:49.490Z,100463.73
2019-05-23T03:41:25.560Z,100468.09
2019-05-23T03:42:02.261Z,100462.56
2019-05-23T03:42:39.141Z,100458.80
2019-05-23T03:43:17.411Z,100461.45
2019-05-23T03:43:54.392Z,100467.58
2019-05-23T03:44:31.381Z,100463.02
2019-05-23T03:45:09.668Z,100464.37
2019-05-23T03:45:50.835Z,100468.18
2019-05-23T03:46:29.123Z,100460.87
2019-05-23T03:47:07.449Z,100462.97
2019-05-23T03:47:46.465Z,100463.34
2019-05-23T03:48:24.601Z,100468.14
2019-05-23T03:49:00.679Z,100465.70
2019-05-23T03:49:37.441Z,100463.16
2019-05-23T03:50:15.006Z,100462.31
2019-05-23T03:50:52.329Z,100463.56
2019-05-23T03:51:29.289Z,100465.34
2019-05-23T03:52:06.354Z,100463.94
2019-05-23T03:52:42.730Z,100463.94
2019-05-23T03:53:19.688Z,100465.95
2019-05-23T03:53:56.938Z,100465.27
2019-05-23T03:54:32.906Z,100464.37
2019-05-23T03:55:09.550Z,100461.39
2019-05-23T03:55:48.593Z,100458.44
2019-05-23T03:56:25.098Z,100461.39
2019-05-23T03:57:01.677Z,100463.13
2019-05-23T03:57:38.347Z,100455.17
2019-05-23T03:58:14.295Z,100461.59
2019-05-23T03:58:51.397Z,100463.73
2019-05-23T03:59:28.565Z,100458.97
2019-05-23T04:00:06.348Z,100462.93
2019-05-23T04:00:57.185Z,100466.66
2019-05-23T04:01:46.754Z,100462.45
2019-05-23T04:02:15.928Z,100457.13
2019-05-23T04:02:52.066Z,100460.19
2019-05-23T04:03:30.245Z,100458.57
2019-05-23T04:04:06.330Z,100462.84
2019-05-23T04:04:43.427Z,100462.84
2019-05-23T04:05:20.639Z,100457.68
2019-05-23T04:05:57.507Z,100461.48
2019-05-23T04:06:34.966Z,100459.75
2019-05-23T04:07:11.991Z,100452.84
2019-05-23T04:07:48.612Z,100445.16
2019-05-23T04:08:25.123Z,100458.33
2019-05-23T04:09:02.506Z,100442.38
2019-05-23T04:09:38.402Z,100453.41
2019-05-23T04:10:14.864Z,100450.37
2019-05-23T04:10:52.260Z,100450.37
2019-05-23T04:11:28.376Z,100460.23
2019-05-23T04:12:05.283Z,100460.23
2019-05-23T04:12:42.735Z,100456.67
2019-05-23T04:13:18.816Z,100461.41
2019-05-23T04:13:56.112Z,100455.83
2019-05-23T04:14:32.255Z,100461.45
2019-05-23T04:15:09.388Z,100460.23
2019-05-23T04:15:45.540Z,100460.16
2019-05-23T04:16:22.648Z,100459.06
2019-05-23T04:16:58.527Z,100459.06
2019-05-23T04:17:35.371Z,100459.34
2019-05-23T04:18:12.216Z,100456.71
2019-05-23T04:18:48.535Z,100458.81
2019-05-23T04:19:25.088Z,100454.41
2019-05-23T04:20:01.636Z,100452.83
2019-05-23T04:20:37.440Z,100451.62
2019-05-23T04:21:14.785Z,100453.40
2019-05-23T04:21:51.940Z,100459.33
2019-05-23T04:22:28.859Z,100455.05
2019-05-23T04:23:06.343Z,100459.33
2019-05-23T04:23:43.107Z,100456.33
2019-05-23T04:24:19.191Z,100448.38
2019-05-23T04:24:55.778Z,100448.38
2019-05-23T04:25:32.083Z,100454.08
2019-05-23T04:26:08.143Z,100446.89
2019-05-23T04:26:44.564Z,100443.91
2019-05-23T04:27:21.290Z,100449.03
2019-05-23T04:27:57.457Z,100448.50
2019-05-23T04:28:33.741Z,100449.80
2019-05-23T04:29:11.144Z,100451.52
2019-05-23T04:29:47.736Z,100453.45
2019-05-23T04:30:23.778Z,100452.55
2019-05-23T04:30:59.926Z,100454.34
2019-05-23T04:31:36.410Z,100448.41
2019-05-23T04:32:12.895Z,100455.69
2019-05-23T04:32:49.583Z,100459.08
2019-05-23T04:33:25.546Z,100452.47
2019-05-23T04:34:02.059Z,100456.30
2019-05-23T04:34:38.375Z,100458.09
2019-05-23T04:35:14.093Z,100456.88
2019-05-23T04:35:50.374Z,100453.89
2019-05-23T04:36:26.517Z,100452.91
2019-05-23T04:37:02.419Z,100453.59
2019-05-23T04:37:38.744Z,100450.11
2019-05-23T04:38:16.197Z,100458.23
2019-05-23T04:38:51.894Z,100453.10
2019-05-23T04:39:29.013Z,100455.61
2019-05-23T04:40:06.248Z,100457.52
2019-05-23T04:40:41.794Z,100451.41
2019-05-23T04:41:18.194Z,100451.41
2019-05-23T04:41:54.729Z,100455.30
2019-05-23T04:42:30.790Z,100452.66
2019-05-23T04:43:07.021Z,100456.02
2019-05-23T04:43:43.737Z,100453.34
2019-05-23T04:44:19.378Z,100452.84
2019-05-23T04:44:55.416Z,100451.55
2019-05-23T04:45:33.413Z,100457.17
2019-05-23T04:46:09.895Z,100456.67
2019-05-23T04:46:46.825Z,100457.97
2019-05-23T04:47:24.164Z,100448.25
2019-05-23T04:48:00.676Z,100457.00
2019-05-23T04:48:37.273Z,100452.57
2019-05-23T04:49:14.353Z,100451.50
2019-05-23T04:49:50.511Z,100456.13
2019-05-23T04:50:28.130Z,100454.84
2019-05-23T04:51:06.236Z,100455.66
2019-05-23T04:51:42.530Z,100458.14
2019-05-23T04:52:19.167Z,100451.97
2019-05-23T04:52:55.688Z,100455.22
2019-05-23T04:53:32.561Z,100458.77
2019-05-23T04:54:08.754Z,100456.06
2019-05-23T04:54:45.743Z,100456.45
2019-05-23T04:55:22.489Z,100456.45
2019-05-23T04:55:59.318Z,100454.63
2019-05-23T04:56:36.622Z,100456.06
2019-05-23T04:57:14.934Z,100452.78
2019-05-23T04:57:52.712Z,100452.78
2019-05-23T04:58:29.806Z,100450.00
2019-05-23T04:59:05.400Z,100450.00
2019-05-23T04:59:41.759Z,100455.34
2019-05-23T05:00:19.198Z,100456.40
2019-05-23T05:00:54.734Z,100452.06
2019-05-23T05:01:32.562Z,100454.89
2019-05-23T05:02:24.707Z,100453.99
2019-05-23T05:02:47.951Z,100457.14
2019-05-23T05:03:24.928Z,100451.11
2019-05-23T05:04:01.967Z,100459.44
2019-05-23T05:04:38.023Z,100455.44
2019-05-23T05:05:15.477Z,100455.44
2019-05-23T05:05:51.862Z,100451.05
2019-05-23T05:06:27.799Z,100455.10
2019-05-23T05:07:05.013Z,100455.10
2019-05-23T05:07:41.784Z,100455.90
2019-05-23T05:08:18.171Z,100458.43
2019-05-23T05:08:55.400Z,100458.43
2019-05-23T05:09:33.700Z,100457.30
2019-05-23T05:10:12.044Z,100458.66
2019-05-23T05:10:50.091Z,100458.66
2019-05-23T05:11:30.200Z,100464.71
2019-05-23T05:12:05.988Z,100461.32
2019-05-23T05:12:42.481Z,100456.45
2019-05-23T05:13:19.002Z,100451.36
2019-05-23T05:13:55.293Z,100460.87
2019-05-23T05:14:31.936Z,100460.87
2019-05-23T05:15:09.016Z,100451.77
2019-05-23T05:15:45.145Z,100451.77
2019-05-23T05:16:21.295Z,100454.58
2019-05-23T05:16:58.149Z,100453.39
2019-05-23T05:17:34.165Z,100450.98
2019-05-23T05:18:11.778Z,100457.48
2019-05-23T05:18:48.364Z,100453.28
2019-05-23T05:19:24.799Z,100446.46
2019-05-23T05:20:01.560Z,100454.50
2019-05-23T05:20:37.607Z,100454.63
2019-05-23T05:21:13.561Z,100454.63
2019-05-23T05:21:49.738Z,100457.28
2019-05-23T05:22:26.765Z,100457.28
2019-05-23T05:23:02.792Z,100460.81
2019-05-23T05:23:39.663Z,100460.13
2019-05-23T05:24:16.270Z,100465.16
2019-05-23T05:24:52.271Z,100463.28
2019-05-23T05:25:29.856Z,100464.86
2019-05-23T05:26:08.167Z,100455.66
2019-05-23T05:26:43.785Z,100464.42
2019-05-23T05:27:20.800Z,100461.27
2019-05-23T05:27:57.455Z,100458.83
2019-05-23T05:28:33.549Z,100466.41
2019-05-23T05:29:10.478Z,100459.78
2019-05-23T05:29:47.109Z,100467.22
2019-05-23T05:30:23.033Z,100463.78
2019-05-23T05:30:59.212Z,100459.17
2019-05-23T05:31:35.999Z,100459.17
2019-05-23T05:32:13.481Z,100462.77
2019-05-23T05:32:50.348Z,100462.77
2019-05-23T05:33:26.523Z,100466.81
2019-05-23T05:34:02.060Z,100463.12
2019-05-23T05:34:38.488Z,100463.12
2019-05-23T05:35:15.418Z,100465.07
2019-05-23T05:35:51.144Z,100465.07
2019-05-23T05:36:27.190Z,100457.59
2019-05-23T05:37:03.584Z,100465.77
2019-05-23T05:37:39.187Z,100466.41
2019-05-23T05:38:16.059Z,100466.41
2019-05-23T05:38:52.763Z,100471.01
2019-05-23T05:39:28.615Z,100464.28
2019-05-23T05:40:06.925Z,100463.57
2019-05-23T05:40:43.419Z,100469.41
2019-05-23T05:41:20.764Z,100466.42
2019-05-23T05:41:57.900Z,100462.08
2019-05-23T05:42:34.642Z,100462.08
2019-05-23T05:43:10.750Z,100467.56
2019-05-23T05:43:47.762Z,100460.23
2019-05-23T05:44:24.025Z,100465.22
2019-05-23T05:45:00.641Z,100468.95
2019-05-23T05:45:36.933Z,100472.31
2019-05-23T05:46:13.321Z,100472.31
2019-05-23T05:46:48.885Z,100470.80
2019-05-23T05:47:25.432Z,100470.84
2019-05-23T05:48:01.958Z,100469.36
2019-05-23T05:48:37.848Z,100472.89
2019-05-23T05:49:15.053Z,100472.05
2019-05-23T05:49:51.893Z,100470.41
2019-05-23T05:50:27.682Z,100473.88
2019-05-23T05:51:05.948Z,100472.85
2019-05-23T05:51:42.434Z,100474.29
2019-05-23T05:52:20.498Z,100473.20
2019-05-23T05:52:56.829Z,100474.05
2019-05-23T05:53:33.412Z,100474.05
2019-05-23T05:54:09.818Z,100480.77
2019-05-23T05:54:46.384Z,100473.16
2019-05-23T05:55:22.940Z,100473.16
2019-05-23T05:55:58.445Z,100476.63
2019-05-23T05:56:35.013Z,100483.58
2019-05-23T05:57:11.381Z,100476.58
2019-05-23T05:57:47.306Z,100480.73
2019-05-23T05:58:24.060Z,100476.09
2019-05-23T05:59:00.227Z,100478.33
2019-05-23T05:59:36.357Z,100474.99
2019-05-23T06:00:31.385Z,100475.78
2019-05-23T06:01:10.810Z,100474.05
2019-05-23T06:01:47.614Z,100479.78
2019-05-23T06:02:23.995Z,100477.87
2019-05-23T06:03:05.003Z,100479.28
2019-05-23T06:03:38.448Z,100479.28
2019-05-23T06:04:14.819Z,100480.97
2019-05-23T06:04:51.274Z,100476.79
2019-05-23T06:05:35.575Z,100476.79
2019-05-23T06:06:17.926Z,100484.13
2019-05-23T06:07:27.877Z,100480.67
2019-05-23T06:08:04.792Z,100486.06
2019-05-23T06:08:42.825Z,100485.72
2019-05-23T06:09:26.099Z,100485.86
2019-05-23T06:10:03.649Z,100486.95
2019-05-23T06:10:40.536Z,100486.95
2019-05-23T06:11:16.846Z,100481.73
2019-05-23T06:11:52.852Z,100474.89
2019-05-23T06:12:29.239Z,100482.47
2019-05-23T06:13:07.008Z,100485.89
2019-05-23T06:13:43.013Z,100485.89
2019-05-23T06:14:19.703Z,100480.56
2019-05-23T06:14:55.873Z,100487.21
2019-05-23T06:15:33.684Z,100482.62
2019-05-23T06:16:11.019Z,100483.77
2019-05-23T06:16:47.714Z,100485.66
2019-05-23T06:17:23.268Z,100485.67
2019-05-23T06:17:59.681Z,100481.70
2019-05-23T06:18:36.116Z,100485.53
2019-05-23T06:19:12.008Z,100485.53
2019-05-23T06:19:48.333Z,100487.08
2019-05-23T06:20:24.499Z,100474.98
2019-05-23T06:21:01.877Z,100485.50
2019-05-23T06:21:39.021Z,100483.30
2019-05-23T06:22:15.925Z,100487.33
2019-05-23T06:22:52.802Z,100487.81
2019-05-23T06:23:30.371Z,100477.03
2019-05-23T06:24:07.410Z,100492.98
2019-05-23T06:24:49.148Z,100493.09
2019-05-23T06:25:22.334Z,100497.42
2019-05-23T06:25:58.502Z,100491.24
2019-05-23T06:26:34.138Z,100488.55
2019-05-23T06:27:13.271Z,100493.05
2019-05-23T06:27:49.493Z,100494.69
2019-05-23T06:28:25.446Z,100489.80
2019-05-23T06:29:01.507Z,100489.80
2019-05-23T06:29:38.203Z,100486.06
2019-05-23T06:30:16.724Z,100489.00
2019-05-23T06:30:52.798Z,100488.37
2019-05-23T06:31:29.659Z,100484.94
2019-05-23T06:32:08.299Z,100487.98
2019-05-23T06:32:44.529Z,100488.72
2019-05-23T06:33:23.959Z,100492.83
2019-05-23T06:33:58.728Z,100485.64
2019-05-23T06:34:35.848Z,100492.61
2019-05-23T06:35:12.965Z,100488.15
2019-05-23T06:35:48.993Z,100482.50
2019-05-23T06:36:25.813Z,100482.50
2019-05-23T06:37:02.545Z,100477.95
2019-05-23T06:37:38.466Z,100477.95
2019-05-23T06:38:14.790Z,100479.91
2019-05-23T06:38:51.635Z,100476.41
2019-05-23T06:39:27.133Z,100481.27
2019-05-23T06:40:03.764Z,100479.27
2019-05-23T06:40:40.777Z,100479.06
2019-05-23T06:41:18.624Z,100477.59
2019-05-23T06:41:55.231Z,100478.04
2019-05-23T06:42:31.724Z,100478.04
2019-05-23T06:43:07.720Z,100473.30
2019-05-23T06:43:44.880Z,100479.85
2019-05-23T06:44:21.633Z,100478.66
2019-05-23T06:44:58.294Z,100475.94
2019-05-23T06:45:34.602Z,100480.64
2019-05-23T06:46:10.762Z,100482.67
2019-05-23T06:46:46.274Z,100486.69
2019-05-23T06:47:23.272Z,100482.58
2019-05-23T06:48:00.330Z,100488.69
2019-05-23T06:48:36.248Z,100487.83
2019-05-23T06:49:13.185Z,100478.05
2019-05-23T06:49:50.424Z,100490.22
2019-05-23T06:50:26.062Z,100487.98
2019-05-23T06:51:02.543Z,100485.91
2019-05-23T06:51:38.849Z,100485.78
2019-05-23T06:52:15.028Z,100482.86
2019-05-23T06:52:52.203Z,100490.64
2019-05-23T06:53:28.334Z,100487.59
2019-05-23T06:54:04.346Z,100487.59
2019-05-23T06:54:41.327Z,100490.25
2019-05-23T06:55:17.798Z,100486.02
2019-05-23T06:55:53.309Z,100487.94
2019-05-23T06:56:29.612Z,100487.10
2019-05-23T06:57:05.709Z,100484.82
2019-05-23T06:57:42.895Z,100488.22
2019-05-23T06:58:20.053Z,100494.96
2019-05-23T06:58:57.176Z,100492.58
2019-05-23T06:59:32.735Z,100488.00
2019-05-23T07:00:09.257Z,100491.73
2019-05-23T07:00:45.715Z,100491.83
2019-05-23T07:01:21.407Z,100495.67
2019-05-23T07:01:58.247Z,100489.36
2019-05-23T07:02:35.160Z,100495.69
2019-05-23T07:03:13.069Z,100494.16
2019-05-23T07:03:50.670Z,100493.81
2019-05-23T07:04:27.279Z,100494.96
2019-05-23T07:05:02.821Z,100496.02
2019-05-23T07:05:39.914Z,100492.30
2019-05-23T07:06:19.195Z,100497.94
2019-05-23T07:06:55.482Z,100494.16
2019-05-23T07:07:33.091Z,100495.00
2019-05-23T07:08:09.283Z,100497.08
2019-05-23T07:08:45.015Z,100495.16
2019-05-23T07:09:22.024Z,100498.08
2019-05-23T07:09:58.617Z,100494.87
2019-05-23T07:10:34.930Z,100492.62
2019-05-23T07:11:11.256Z,100493.83
2019-05-23T07:11:48.560Z,100495.69
2019-05-23T07:12:24.033Z,100499.18
2019-05-23T07:13:00.377Z,100497.77
2019-05-23T07:13:37.542Z,100502.06
2019-05-23T07:14:13.328Z,100506.23
2019-05-23T07:14:49.852Z,100501.32
2019-05-23T07:15:27.617Z,100502.56